ETOU

Wiesbaden Army Airfield Airport

Wiesbaden, Germany
METAR ETOU 200656Z AUTO 36003KT 9999 BKN036 00/M04 A3003 RMK AO2 SLP179 T10021037 $
Observed Flight Rules
Feb-20 @ 06:56 UTC (38 minutes ago) Visual Flight Rules
Wind Visibility Clouds
360° at 3 knots 10,000+ meters
  • Broken at 3,600' AGL
Temperatures Readings
Current -0°C / 32°F
Dewpoint -4°C / 25°F
Humidity 75%
Altimeter 30.03" Hg
Pressure 1017.9 hPa
Elevation 141
METAR ETOU 200656Z AUTO 36003KT 9999 BKN036 00/M04 A3003 RMK AO2 SLP179 T10021037 $
Observed Flight Rules
Feb-20 @ 06:56 UTC
(38 minutes ago)
VFR
Wind Visibility
360° at 3 knots 10,000+ meters
Clouds
  • Broken at 3,600' AGL
Temperature Dewpoint
-0°C / 32°F -4°C / 25°F
Humidity Altimeter Pressure
75% 30.03" Hg 1017.9 hPa